»·PEaware :: N973SE KSBP-KIZA

N973SE :: KSBP-KIZA

FLIGHT INFORMATION

Flight Status: Arrived
Operator: Privately registered:
United States
More flights under this callsign
Pilot: Stig E. (4778)
Aircraft: PIPER PA-28R-201 ARROW
(P28R)
More flights by this aircraft type
Origin: KSBP San Luis Co Regl
United States
Destination: KIZA Santa Ynez
United States
More flights between these airports :: More routes between these airports
Route:
File this flight plan on PilotEdge
Remarks:
Altitude:
(Current/Filed)
2,500ft
Speed:
(Current/Filed)
120kts
Departed: 19-Mar-18 02:42 AM
Arrived: 19-Mar-18 03:11 AM
Distance/Time
Traveled:
47nm/0:29
Distance/Time
To Go:
Arrived

Flight Plot

Page will automatically refresh every two minutes.


Map Options




Map Legend


Flown Route
Filed Route
Departure Airport
Arrival Airport
Navaid (VOR, NDB)
Fix

Horizontal Profiles

Position Reports

Time Latitude Longitude Heading Altitude Ground
Speed
19-Mar-18 02:04 35.238940 -120.639408 180 190ft 0kts
19-Mar-18 02:05 35.238940 -120.639408 180 190ft 0kts
19-Mar-18 02:06 35.238940 -120.639408 180 190ft 0kts
19-Mar-18 02:07 35.238940 -120.639408 180 190ft 0kts
19-Mar-18 02:08 35.238940 -120.639408 180 190ft 0kts
19-Mar-18 02:09 35.238940 -120.639408 180 190ft 0kts
19-Mar-18 02:10 35.238940 -120.639408 180 190ft 0kts
19-Mar-18 02:11 35.238940 -120.639408 180 190ft 0kts
19-Mar-18 02:12 35.238940 -120.639408 180 190ft 0kts
19-Mar-18 02:13 35.238940 -120.639408 180 190ft 0kts
19-Mar-18 02:14 35.238940 -120.639408 180 190ft 0kts
19-Mar-18 02:15 35.238940 -120.639408 180 190ft 0kts
19-Mar-18 02:16 35.238940 -120.639408 180 190ft 0kts
19-Mar-18 02:17 35.238940 -120.639408 180 190ft 0kts
19-Mar-18 02:18 35.238940 -120.639408 180 190ft 0kts
19-Mar-18 02:19 35.238940 -120.639408 180 190ft 0kts
19-Mar-18 02:20 35.238940 -120.639408 180 190ft 0kts
19-Mar-18 02:21 35.238940 -120.639408 180 190ft 0kts
19-Mar-18 02:22 35.238755 -120.639328 131 191ft 2kts
19-Mar-18 02:23 35.237915 -120.638884 182 193ft 9kts
19-Mar-18 02:24 35.236051 -120.636586 122 202ft 12kts
19-Mar-18 02:25 35.233817 -120.632628 125 211ft 17kts
19-Mar-18 02:26 35.233194 -120.631785 254 212ft 0kts
19-Mar-18 02:27 35.233194 -120.631785 254 212ft 0kts
19-Mar-18 02:28 35.233194 -120.631785 254 212ft 0kts
19-Mar-18 02:29 35.233194 -120.631785 254 212ft 0kts
19-Mar-18 02:30 35.233194 -120.631785 254 212ft 0kts
19-Mar-18 02:31 35.233194 -120.631785 254 212ft 0kts
19-Mar-18 02:32 35.233194 -120.631785 254 212ft 0kts
19-Mar-18 02:33 35.233194 -120.631785 254 212ft 0kts
19-Mar-18 02:34 35.233194 -120.631785 254 212ft 0kts
19-Mar-18 02:35 35.233194 -120.631785 254 212ft 0kts
19-Mar-18 02:36 35.233194 -120.631785 254 212ft 0kts
19-Mar-18 02:37 35.233194 -120.631785 254 212ft 0kts
19-Mar-18 02:38 35.233194 -120.631785 254 212ft 0kts
19-Mar-18 02:39 35.233194 -120.631785 254 212ft 0kts
19-Mar-18 02:40 35.232949 -120.632611 250 210ft 8kts
19-Mar-18 02:41 35.242252 -120.649259 305 596ft 95kts
19-Mar-18 02:42 35.238977 -120.675835 216 1400ft 107kts
19-Mar-18 02:43 35.215557 -120.668258 127 1996ft 105kts
19-Mar-18 02:44 35.197823 -120.639369 126 2502ft 109kts
19-Mar-18 02:45 35.178022 -120.607181 126 2500ft 120kts
19-Mar-18 02:46 35.157836 -120.574362 126 2500ft 121kts
19-Mar-18 02:47 35.137578 -120.541408 126 2500ft 121kts
19-Mar-18 02:48 35.113260 -120.513695 144 2500ft 121kts
19-Mar-18 02:49 35.085313 -120.490945 146 2500ft 120kts
19-Mar-18 02:50 35.057017 -120.469293 148 2500ft 120kts
19-Mar-18 02:51 35.028426 -120.448059 148 2500ft 120kts
19-Mar-18 02:52 34.999739 -120.427069 148 2500ft 120kts
19-Mar-18 02:53 34.971009 -120.406206 148 2500ft 120kts
19-Mar-18 02:54 34.942335 -120.385467 148 2500ft 120kts
19-Mar-18 02:55 34.913540 -120.364730 148 2500ft 120kts
19-Mar-18 02:56 34.885252 -120.344536 149 2500ft 120kts
19-Mar-18 02:57 34.856323 -120.323982 149 2500ft 120kts
19-Mar-18 02:58 34.827410 -120.303316 149 2500ft 120kts
19-Mar-18 02:59 34.798488 -120.282594 149 2501ft 120kts
19-Mar-18 03:00 34.769534 -120.261834 149 2500ft 120kts
19-Mar-18 03:01 34.740676 -120.241145 149 2500ft 120kts
19-Mar-18 03:02 34.711803 -120.220451 149 2297ft 116kts
19-Mar-18 03:03 34.685048 -120.201234 149 1991ft 106kts
19-Mar-18 03:04 34.659911 -120.183189 149 1691ft 105kts
19-Mar-18 03:05 34.637967 -120.167459 149 1686ft 79kts
19-Mar-18 03:06 34.619667 -120.153692 138 1642ft 77kts
19-Mar-18 03:07 34.613119 -120.128183 97 1239ft 75kts
19-Mar-18 03:08 34.610484 -120.103527 100 1044ft 74kts
19-Mar-18 03:09 34.607263 -120.079235 98 663ft 67kts
19-Mar-18 03:10 34.606737 -120.071591 276 665ft 7kts
19-Mar-18 03:11 34.607446 -120.073122 234 661ft 0kts
19-Mar-18 03:12 34.607446 -120.073122 234 661ft 0kts
19-Mar-18 03:13 34.607446 -120.073122 234 661ft 0kts
19-Mar-18 03:14 34.607446 -120.073122 234 661ft 0kts
19-Mar-18 03:15 34.607446 -120.073122 234 661ft 0kts
19-Mar-18 03:16 34.607446 -120.073122 234 661ft 0kts
19-Mar-18 03:17 34.607446 -120.073122 234 661ft 0kts
19-Mar-18 03:18 34.607446 -120.073122 234 661ft 0kts
19-Mar-18 03:19 34.607446 -120.073122 234 661ft 0kts
19-Mar-18 03:20 34.606966 -120.071884 95 664ft 5kts
19-Mar-18 03:21 34.606645 -120.070812 218 665ft 0kts
19-Mar-18 03:22 34.606645 -120.070812 218 665ft 0kts
19-Mar-18 03:23 34.606645 -120.070812 218 665ft 0kts
19-Mar-18 03:24 34.606645 -120.070812 218 665ft 0kts
19-Mar-18 03:25 34.606645 -120.070812 218 665ft 0kts

Navigation Log

Ident Type
Flight plan parsing failed, navigation log unavailable